Airfield :
LOGIN :

Register | Disclaimer

   EN    FR    IT 

 










Legend :    VFR   Marginal VFR   IFR   Intensive IFR   Very Intensive IFR
Visi :
Ceiling :
>= 8 km
>= 3000ft
5 to 8 km
1000 to 3000 ft
1500m to 5 km
500 to 1000 ft
800 to 1500m
200 to 500 ft
< 800m
< 200 ft
Symbols :   Thunderstorms  Fog  Heavy snow  Heavy precipitations  Wind > 20 kt
SIGMETs :     Misc.  Thunderstorms  Icing  Turbulence  Mountain Waves  Volcanic Ashes






- Airport Elevation : 194 ft
- IATA code : IEG


EPZG - Zielona Gora Babimost

CURRENT METAR :
  • 162000Z 12003KT 080V150 CAVOK 19/13 Q1010

EXPIRED METARs :
  • 161930Z VRB02KT CAVOK 21/10 Q1010
  • 161900Z 00000KT CAVOK 21/12 Q1010
  • 161830Z 00000KT CAVOK 22/12 Q1010
  • 161800Z 15002KT CAVOK 23/11 Q1009
  • 161730Z 24003KT CAVOK 24/09 Q1009
  • 161700Z 21003KT CAVOK 25/08 Q1009
  • 161630Z 18003KT 140V230 CAVOK 25/06 Q1009
  • 161600Z 22005KT 190V260 CAVOK 25/07 Q1009

TAF TAF EPZG
Valid from the 16 at 21:00 until the 17 at 06:00 UTC


162030Z 1621/1706 VRB02KT CAVOK
PROB30
TEMPO 1700/1704 0800 FG



MET'MAP, your aeronautical weather chart ! - Copyright ORBIFLY December 2007 - Disclaimer

ORBIFLY MET'MAP TEAM :

Programming & Development : Alexandra Zaïnal
Original concept : Baudouin d'Aumeries
Technical & hardware support : Manuel Goepfert
Assistance : Marc-Olivier Méhu




SOURCES & CREDITS :

   NOAA